Terminal Aerodrome Forecast
Issued by NWS

Home | Current Version | Previous Version | Text Only | Print | Product List | Glossary On
Versions: 1 2 3 4 5 6 7 8 9 10 11 12 13 14 15 16 17 18 19
466
FTUS44 KLZK 241720
TAFLIT
TAF
KLIT 241720Z 2418/2518 18014G24KT P6SM VCSH BKN025 BKN250
      TEMPO 2418/2422 -SHRA SCT025
     FM242200 17012G24KT P6SM VCTS BKN035CB OVC050
      TEMPO 2422/2502 4SM TSRA BR OVC025CB
     FM250200 17012G22KT 4SM -TSRA BR BKN025CB
      TEMPO 2502/2506 VRB15G35KT 1SM +TSRA BR OVC015CB
     FM250600 19010G20KT P6SM VCTS SCT020CB OVC050 PROB30 2506/2512
      5SM TSRA BR BKN025CB
     FM251300 22012G18KT P6SM BKN050 OVC120=

USA.gov is the U.S. government's official web portal to all federal, state and local government web resources and services.